sensor_id;sensor_type;location;lat;lon;timestamp;pressure;altitude;pressure_sealevel;temperature;humidity
28027;BME280;15344;52.342;-1.290;2022-08-01T00:01:53;100566.61;;;19.97;51.55
28027;BME280;15344;52.342;-1.290;2022-08-01T00:04:18;100568.71;;;22.02;53.84
28027;BME280;15344;52.342;-1.290;2022-08-01T00:06:44;100576.74;;;18.25;55.73
28027;BME280;15344;52.342;-1.290;2022-08-01T00:09:09;100581.60;;;21.23;50.16
28027;BME280;15344;52.342;-1.290;2022-08-01T00:11:34;100583.46;;;20.30;51.01
28027;BME280;15344;52.342;-1.290;2022-08-01T00:13:59;100585.12;;;21.55;51.68
28027;BME280;15344;52.342;-1.290;2022-08-01T00:16:25;100584.77;;;20.48;50.51
28027;BME280;15344;52.342;-1.290;2022-08-01T00:18:50;100581.53;;;19.63;52.21
28027;BME280;15344;52.342;-1.290;2022-08-01T00:21:15;100578.13;;;20.23;52.17
28027;BME280;15344;52.342;-1.290;2022-08-01T00:23:41;100573.18;;;20.00;52.12
28027;BME280;15344;52.342;-1.290;2022-08-01T00:26:05;100578.85;;;20.01;55.30
28027;BME280;15344;52.342;-1.290;2022-08-01T00:28:31;100580.23;;;20.58;51.52
28027;BME280;15344;52.342;-1.290;2022-08-01T00:30:56;100574.89;;;20.51;50.78
28027;BME280;15344;52.342;-1.290;2022-08-01T00:33:21;100577.38;;;18.98;53.59
28027;BME280;15344;52.342;-1.290;2022-08-01T00:35:46;100580.30;;;20.07;53.02
28027;BME280;15344;52.342;-1.290;2022-08-01T00:38:11;100578.91;;;19.68;53.47
28027;BME280;15344;52.342;-1.290;2022-08-01T00:40:37;100580.31;;;19.13;54.84
28027;BME280;15344;52.342;-1.290;2022-08-01T00:43:02;100583.16;;;19.96;54.09
28027;BME280;15344;52.342;-1.290;2022-08-01T00:45:27;100584.76;;;20.71;52.53
28027;BME280;15344;52.342;-1.290;2022-08-01T00:47:52;100585.91;;;20.12;54.19
28027;BME280;15344;52.342;-1.290;2022-08-01T00:50:17;100584.10;;;20.74;53.27
28027;BME280;15344;52.342;-1.290;2022-08-01T00:52:43;100577.69;;;20.20;53.79
28027;BME280;15344;52.342;-1.290;2022-08-01T00:55:09;100574.75;;;20.09;54.31
28027;BME280;15344;52.342;-1.290;2022-08-01T00:57:33;100581.46;;;20.29;53.45
28027;BME280;15344;52.342;-1.290;2022-08-01T00:59:59;100584.19;;;19.33;56.16
28027;BME280;15344;52.342;-1.290;2022-08-01T01:02:24;100583.28;;;19.71;56.83
28027;BME280;15344;52.342;-1.290;2022-08-01T01:04:49;100584.72;;;18.90;54.31
28027;BME280;15344;52.342;-1.290;2022-08-01T01:07:19;100585.05;;;19.55;60.56
28027;BME280;15344;52.342;-1.290;2022-08-01T01:09:44;100586.46;;;20.17;54.36
28027;BME280;15344;52.342;-1.290;2022-08-01T01:12:13;100586.61;;;20.44;51.96
28027;BME280;15344;52.342;-1.290;2022-08-01T01:14:33;100585.65;;;21.20;53.03
28027;BME280;15344;52.342;-1.290;2022-08-01T01:16:56;100582.31;;;21.16;52.75
28027;BME280;15344;52.342;-1.290;2022-08-01T01:19:24;100575.80;;;21.40;51.81
28027;BME280;15344;52.342;-1.290;2022-08-01T01:21:54;100578.06;;;20.57;52.16
28027;BME280;15344;52.342;-1.290;2022-08-01T01:24:20;100583.06;;;21.29;52.87
28027;BME280;15344;52.342;-1.290;2022-08-01T01:26:43;100584.88;;;20.62;51.94
28027;BME280;15344;52.342;-1.290;2022-08-01T01:29:06;100578.02;;;20.33;54.05
28027;BME280;15344;52.342;-1.290;2022-08-01T01:31:26;100575.07;;;20.82;52.71
28027;BME280;15344;52.342;-1.290;2022-08-01T01:33:52;100575.47;;;20.90;52.02
28027;BME280;15344;52.342;-1.290;2022-08-01T01:36:17;100571.16;;;21.23;49.23
28027;BME280;15344;52.342;-1.290;2022-08-01T01:38:44;100571.43;;;20.88;50.04
28027;BME280;15344;52.342;-1.290;2022-08-01T01:41:07;100567.03;;;21.21;53.02
28027;BME280;15344;52.342;-1.290;2022-08-01T01:43:34;100565.22;;;19.89;55.38
28027;BME280;15344;52.342;-1.290;2022-08-01T01:45:57;100567.45;;;20.93;55.41
28027;BME280;15344;52.342;-1.290;2022-08-01T01:48:23;100574.68;;;21.42;53.05
28027;BME280;15344;52.342;-1.290;2022-08-01T01:50:48;100572.73;;;19.45;55.57
28027;BME280;15344;52.342;-1.290;2022-08-01T01:53:15;100571.22;;;19.90;51.55
28027;BME280;15344;52.342;-1.290;2022-08-01T01:55:39;100571.84;;;18.85;52.13
28027;BME280;15344;52.342;-1.290;2022-08-01T01:58:03;100571.19;;;19.84;52.59
28027;BME280;15344;52.342;-1.290;2022-08-01T02:00:29;100572.74;;;19.44;53.31
28027;BME280;15344;52.342;-1.290;2022-08-01T02:02:54;100576.17;;;18.70;53.61
28027;BME280;15344;52.342;-1.290;2022-08-01T02:05:20;100574.95;;;20.50;54.05
28027;BME280;15344;52.342;-1.290;2022-08-01T02:07:44;100577.51;;;20.27;52.32
28027;BME280;15344;52.342;-1.290;2022-08-01T02:10:10;100578.10;;;20.26;52.69
28027;BME280;15344;52.342;-1.290;2022-08-01T02:12:37;100578.93;;;17.90;54.33
28027;BME280;15344;52.342;-1.290;2022-08-01T02:15:00;100576.16;;;18.39;56.31
28027;BME280;15344;52.342;-1.290;2022-08-01T02:17:24;100571.61;;;19.09;53.89
28027;BME280;15344;52.342;-1.290;2022-08-01T02:19:50;100577.31;;;18.38;56.17
28027;BME280;15344;52.342;-1.290;2022-08-01T02:22:20;100577.35;;;17.75;58.10
28027;BME280;15344;52.342;-1.290;2022-08-01T02:24:45;100574.16;;;17.09;58.64
28027;BME280;15344;52.342;-1.290;2022-08-01T02:27:09;100577.27;;;17.84;56.60
28027;BME280;15344;52.342;-1.290;2022-08-01T02:29:36;100577.95;;;16.89;59.91
28027;BME280;15344;52.342;-1.290;2022-08-01T02:31:56;100580.81;;;19.49;56.52
28027;BME280;15344;52.342;-1.290;2022-08-01T02:34:22;100580.11;;;19.32;56.12
28027;BME280;15344;52.342;-1.290;2022-08-01T02:36:46;100576.90;;;19.09;55.30
28027;BME280;15344;52.342;-1.290;2022-08-01T02:39:14;100575.93;;;19.66;54.46
28027;BME280;15344;52.342;-1.290;2022-08-01T02:41:41;100578.61;;;19.56;53.54
28027;BME280;15344;52.342;-1.290;2022-08-01T02:44:04;100578.08;;;18.69;54.54
28027;BME280;15344;52.342;-1.290;2022-08-01T02:46:32;100574.21;;;19.26;55.36
28027;BME280;15344;52.342;-1.290;2022-08-01T02:48:53;100570.32;;;16.89;61.39
28027;BME280;15344;52.342;-1.290;2022-08-01T02:51:19;100566.00;;;17.59;59.82
28027;BME280;15344;52.342;-1.290;2022-08-01T02:53:42;100569.71;;;17.99;56.52
28027;BME280;15344;52.342;-1.290;2022-08-01T02:56:08;100570.51;;;18.76;57.66
28027;BME280;15344;52.342;-1.290;2022-08-01T02:58:33;100570.21;;;19.25;54.47
28027;BME280;15344;52.342;-1.290;2022-08-01T03:00:59;100574.89;;;18.89;56.27
28027;BME280;15344;52.342;-1.290;2022-08-01T03:03:23;100570.66;;;18.48;58.34
28027;BME280;15344;52.342;-1.290;2022-08-01T03:05:48;100570.07;;;18.59;55.92
28027;BME280;15344;52.342;-1.290;2022-08-01T03:08:14;100571.40;;;18.08;57.91
28027;BME280;15344;52.342;-1.290;2022-08-01T03:10:40;100571.82;;;17.84;59.67
28027;BME280;15344;52.342;-1.290;2022-08-01T03:13:06;100575.26;;;18.57;56.34
28027;BME280;15344;52.342;-1.290;2022-08-01T03:15:31;100574.20;;;17.98;56.86
28027;BME280;15344;52.342;-1.290;2022-08-01T03:17:54;100572.35;;;17.75;60.83
28027;BME280;15344;52.342;-1.290;2022-08-01T03:20:21;100569.66;;;17.84;61.32
28027;BME280;15344;52.342;-1.290;2022-08-01T03:22:45;100574.27;;;17.75;58.27
28027;BME280;15344;52.342;-1.290;2022-08-01T03:25:11;100579.44;;;17.79;59.22
28027;BME280;15344;52.342;-1.290;2022-08-01T03:27:36;100583.56;;;18.82;56.63
28027;BME280;15344;52.342;-1.290;2022-08-01T03:30:03;100581.15;;;19.58;56.39
28027;BME280;15344;52.342;-1.290;2022-08-01T03:32:27;100575.39;;;18.23;56.93
28027;BME280;15344;52.342;-1.290;2022-08-01T03:34:50;100573.57;;;19.27;56.40
28027;BME280;15344;52.342;-1.290;2022-08-01T03:37:22;100574.62;;;17.95;58.19
28027;BME280;15344;52.342;-1.290;2022-08-01T03:39:47;100582.86;;;18.49;55.56
28027;BME280;15344;52.342;-1.290;2022-08-01T03:42:12;100573.87;;;20.31;52.83
28027;BME280;15344;52.342;-1.290;2022-08-01T03:44:33;100576.53;;;18.54;55.94
28027;BME280;15344;52.342;-1.290;2022-08-01T03:46:59;100572.78;;;18.09;59.27
28027;BME280;15344;52.342;-1.290;2022-08-01T03:49:23;100568.91;;;19.91;55.12
28027;BME280;15344;52.342;-1.290;2022-08-01T03:51:48;100565.37;;;19.94;55.37
28027;BME280;15344;52.342;-1.290;2022-08-01T03:54:13;100565.71;;;20.16;53.27
28027;BME280;15344;52.342;-1.290;2022-08-01T03:56:38;100569.50;;;17.02;58.94
28027;BME280;15344;52.342;-1.290;2022-08-01T03:59:02;100567.76;;;17.02;60.02
28027;BME280;15344;52.342;-1.290;2022-08-01T04:01:29;100573.92;;;18.74;58.49
28027;BME280;15344;52.342;-1.290;2022-08-01T04:03:53;100571.03;;;18.06;58.77
28027;BME280;15344;52.342;-1.290;2022-08-01T04:06:18;100574.41;;;18.93;58.42
28027;BME280;15344;52.342;-1.290;2022-08-01T04:08:43;100572.59;;;17.93;57.94
28027;BME280;15344;52.342;-1.290;2022-08-01T04:11:09;100568.91;;;17.11;60.13
28027;BME280;15344;52.342;-1.290;2022-08-01T04:13:33;100572.94;;;18.70;56.14
28027;BME280;15344;52.342;-1.290;2022-08-01T04:15:59;100577.48;;;18.82;55.91
28027;BME280;15344;52.342;-1.290;2022-08-01T04:18:24;100578.20;;;20.03;54.54
28027;BME280;15344;52.342;-1.290;2022-08-01T04:20:49;100573.62;;;19.29;57.01
28027;BME280;15344;52.342;-1.290;2022-08-01T04:23:14;100570.83;;;19.13;55.47
28027;BME280;15344;52.342;-1.290;2022-08-01T04:25:40;100570.14;;;17.98;58.32
28027;BME280;15344;52.342;-1.290;2022-08-01T04:28:06;100574.26;;;18.25;58.80
28027;BME280;15344;52.342;-1.290;2022-08-01T04:30:33;100573.44;;;18.40;58.98
28027;BME280;15344;52.342;-1.290;2022-08-01T04:32:58;100567.68;;;18.76;55.66
28027;BME280;15344;52.342;-1.290;2022-08-01T04:35:21;100562.75;;;19.54;55.91
28027;BME280;15344;52.342;-1.290;2022-08-01T04:37:46;100564.15;;;18.76;61.26
28027;BME280;15344;52.342;-1.290;2022-08-01T04:40:11;100571.38;;;18.74;66.68
28027;BME280;15344;52.342;-1.290;2022-08-01T04:42:36;100566.89;;;19.15;66.13
28027;BME280;15344;52.342;-1.290;2022-08-01T04:45:07;100571.52;;;19.70;67.14
28027;BME280;15344;52.342;-1.290;2022-08-01T04:47:26;100572.44;;;19.76;67.12
28027;BME280;15344;52.342;-1.290;2022-08-01T04:49:51;100571.37;;;20.39;66.13
28027;BME280;15344;52.342;-1.290;2022-08-01T04:52:16;100574.37;;;18.64;67.02
28027;BME280;15344;52.342;-1.290;2022-08-01T04:54:42;100577.34;;;18.82;70.37
28027;BME280;15344;52.342;-1.290;2022-08-01T04:57:07;100577.46;;;18.20;70.96
28027;BME280;15344;52.342;-1.290;2022-08-01T04:59:35;100578.39;;;19.66;69.81
28027;BME280;15344;52.342;-1.290;2022-08-01T05:01:57;100572.96;;;20.05;66.65
28027;BME280;15344;52.342;-1.290;2022-08-01T05:04:23;100579.26;;;18.80;69.81
28027;BME280;15344;52.342;-1.290;2022-08-01T05:06:47;100575.98;;;19.75;64.97
28027;BME280;15344;52.342;-1.290;2022-08-01T05:09:13;100576.98;;;19.76;69.07
28027;BME280;15344;52.342;-1.290;2022-08-01T05:11:38;100580.04;;;19.24;70.43
28027;BME280;15344;52.342;-1.290;2022-08-01T05:14:03;100574.39;;;20.12;69.63
28027;BME280;15344;52.342;-1.290;2022-08-01T05:16:29;100576.09;;;18.48;64.38
28027;BME280;15344;52.342;-1.290;2022-08-01T05:18:54;100577.04;;;18.43;65.03
28027;BME280;15344;52.342;-1.290;2022-08-01T05:21:19;100575.58;;;17.92;65.94
28027;BME280;15344;52.342;-1.290;2022-08-01T05:23:44;100574.22;;;19.70;67.07
28027;BME280;15344;52.342;-1.290;2022-08-01T05:26:10;100575.11;;;17.59;67.71
28027;BME280;15344;52.342;-1.290;2022-08-01T05:28:34;100581.71;;;18.57;69.67
28027;BME280;15344;52.342;-1.290;2022-08-01T05:30:59;100586.30;;;18.80;69.82
28027;BME280;15344;52.342;-1.290;2022-08-01T05:33:25;100586.33;;;20.00;66.90
28027;BME280;15344;52.342;-1.290;2022-08-01T05:35:50;100585.96;;;18.03;66.83
28027;BME280;15344;52.342;-1.290;2022-08-01T05:38:15;100584.49;;;18.69;65.54
28027;BME280;15344;52.342;-1.290;2022-08-01T05:40:40;100583.17;;;19.26;67.89
28027;BME280;15344;52.342;-1.290;2022-08-01T05:43:05;100583.47;;;18.61;65.01
28027;BME280;15344;52.342;-1.290;2022-08-01T05:45:32;100581.66;;;19.25;64.83
28027;BME280;15344;52.342;-1.290;2022-08-01T05:47:56;100580.46;;;19.68;65.57
28027;BME280;15344;52.342;-1.290;2022-08-01T05:50:21;100587.46;;;19.81;63.45
28027;BME280;15344;52.342;-1.290;2022-08-01T05:52:46;100587.51;;;20.20;64.39
28027;BME280;15344;52.342;-1.290;2022-08-01T05:55:11;100588.50;;;19.89;62.28
28027;BME280;15344;52.342;-1.290;2022-08-01T05:57:36;100587.46;;;19.60;65.91
28027;BME280;15344;52.342;-1.290;2022-08-01T06:00:03;100583.50;;;20.86;62.64
28027;BME280;15344;52.342;-1.290;2022-08-01T06:02:27;100589.37;;;18.95;61.69
28027;BME280;15344;52.342;-1.290;2022-08-01T06:04:52;100591.36;;;18.45;62.56
28027;BME280;15344;52.342;-1.290;2022-08-01T06:07:17;100588.54;;;20.61;60.31
28027;BME280;15344;52.342;-1.290;2022-08-01T06:09:43;100586.77;;;19.87;63.66
28027;BME280;15344;52.342;-1.290;2022-08-01T06:12:08;100591.67;;;19.04;63.21
28027;BME280;15344;52.342;-1.290;2022-08-01T06:14:33;100589.07;;;19.85;62.40
28027;BME280;15344;52.342;-1.290;2022-08-01T06:16:59;100595.27;;;18.81;65.53
28027;BME280;15344;52.342;-1.290;2022-08-01T06:19:24;100597.03;;;18.77;63.82
28027;BME280;15344;52.342;-1.290;2022-08-01T06:21:49;100595.93;;;18.37;64.73
28027;BME280;15344;52.342;-1.290;2022-08-01T06:24:15;100597.83;;;18.23;64.86
28027;BME280;15344;52.342;-1.290;2022-08-01T06:26:40;100600.71;;;18.41;64.42
28027;BME280;15344;52.342;-1.290;2022-08-01T06:29:05;100596.40;;;19.47;61.97
28027;BME280;15344;52.342;-1.290;2022-08-01T06:31:30;100599.77;;;19.13;64.52
28027;BME280;15344;52.342;-1.290;2022-08-01T06:33:55;100604.64;;;20.87;61.51
28027;BME280;15344;52.342;-1.290;2022-08-01T06:36:20;100605.98;;;18.16;62.18
28027;BME280;15344;52.342;-1.290;2022-08-01T06:38:45;100610.18;;;18.76;61.71
28027;BME280;15344;52.342;-1.290;2022-08-01T06:41:10;100604.84;;;17.96;65.88
28027;BME280;15344;52.342;-1.290;2022-08-01T06:43:36;100609.77;;;19.07;64.04
28027;BME280;15344;52.342;-1.290;2022-08-01T06:46:01;100608.73;;;18.54;63.92
28027;BME280;15344;52.342;-1.290;2022-08-01T06:48:26;100607.77;;;19.97;62.37
28027;BME280;15344;52.342;-1.290;2022-08-01T06:50:51;100610.52;;;18.13;63.45
28027;BME280;15344;52.342;-1.290;2022-08-01T06:53:16;100614.81;;;18.45;65.52
28027;BME280;15344;52.342;-1.290;2022-08-01T06:55:42;100613.06;;;17.35;65.88
28027;BME280;15344;52.342;-1.290;2022-08-01T06:58:07;100611.11;;;19.52;64.57
28027;BME280;15344;52.342;-1.290;2022-08-01T07:00:32;100612.09;;;19.30;61.32
28027;BME280;15344;52.342;-1.290;2022-08-01T07:02:58;100606.37;;;17.72;66.48
28027;BME280;15344;52.342;-1.290;2022-08-01T07:05:23;100609.91;;;19.46;62.93
28027;BME280;15344;52.342;-1.290;2022-08-01T07:07:48;100601.54;;;20.14;59.75
28027;BME280;15344;52.342;-1.290;2022-08-01T07:10:13;100602.94;;;20.73;59.82
28027;BME280;15344;52.342;-1.290;2022-08-01T07:12:38;100604.63;;;20.76;56.39
28027;BME280;15344;52.342;-1.290;2022-08-01T07:15:04;100610.98;;;21.13;59.05
28027;BME280;15344;52.342;-1.290;2022-08-01T07:17:28;100607.96;;;19.24;59.64
28027;BME280;15344;52.342;-1.290;2022-08-01T07:19:53;100610.06;;;18.49;64.95
28027;BME280;15344;52.342;-1.290;2022-08-01T07:22:18;100606.50;;;18.90;59.71
28027;BME280;15344;52.342;-1.290;2022-08-01T07:24:43;100600.75;;;19.83;60.63
28027;BME280;15344;52.342;-1.290;2022-08-01T07:27:08;100601.90;;;20.96;58.64
28027;BME280;15344;52.342;-1.290;2022-08-01T07:29:34;100607.13;;;19.21;56.29
28027;BME280;15344;52.342;-1.290;2022-08-01T07:31:59;100614.28;;;19.57;56.79
28027;BME280;15344;52.342;-1.290;2022-08-01T07:34:25;100613.36;;;19.46;55.47
28027;BME280;15344;52.342;-1.290;2022-08-01T07:36:50;100618.60;;;19.97;55.75
28027;BME280;15344;52.342;-1.290;2022-08-01T07:39:14;100621.59;;;21.57;52.51
28027;BME280;15344;52.342;-1.290;2022-08-01T07:41:39;100626.16;;;21.64;52.87
28027;BME280;15344;52.342;-1.290;2022-08-01T07:44:04;100629.90;;;23.04;53.39
28027;BME280;15344;52.342;-1.290;2022-08-01T07:46:30;100622.79;;;19.99;52.34
28027;BME280;15344;52.342;-1.290;2022-08-01T07:48:55;100625.00;;;22.17;53.15
28027;BME280;15344;52.342;-1.290;2022-08-01T07:51:19;100621.04;;;21.03;53.57
28027;BME280;15344;52.342;-1.290;2022-08-01T07:53:45;100615.93;;;21.88;52.66
28027;BME280;15344;52.342;-1.290;2022-08-01T07:56:10;100612.18;;;22.95;49.12
28027;BME280;15344;52.342;-1.290;2022-08-01T07:58:35;100607.64;;;22.89;48.22
28027;BME280;15344;52.342;-1.290;2022-08-01T08:01:00;100607.84;;;21.29;51.18
28027;BME280;15344;52.342;-1.290;2022-08-01T08:03:25;100616.20;;;22.78;51.14
28027;BME280;15344;52.342;-1.290;2022-08-01T08:05:50;100615.47;;;21.57;48.30
28027;BME280;15344;52.342;-1.290;2022-08-01T08:08:15;100621.58;;;22.90;47.73
28027;BME280;15344;52.342;-1.290;2022-08-01T08:10:40;100623.29;;;23.62;45.18
28027;BME280;15344;52.342;-1.290;2022-08-01T08:13:05;100612.48;;;21.68;46.48
28027;BME280;15344;52.342;-1.290;2022-08-01T08:15:31;100613.88;;;20.80;48.31
28027;BME280;15344;52.342;-1.290;2022-08-01T08:17:55;100616.12;;;22.07;47.19
28027;BME280;15344;52.342;-1.290;2022-08-01T08:20:20;100620.97;;;23.20;45.35
28027;BME280;15344;52.342;-1.290;2022-08-01T08:22:45;100616.99;;;22.53;47.99
28027;BME280;15344;52.342;-1.290;2022-08-01T08:25:10;100615.54;;;23.89;46.30
28027;BME280;15344;52.342;-1.290;2022-08-01T08:27:36;100609.51;;;24.42;45.61
28027;BME280;15344;52.342;-1.290;2022-08-01T08:30:01;100607.50;;;25.51;43.75
28027;BME280;15344;52.342;-1.290;2022-08-01T08:32:26;100602.36;;;24.23;42.93
28027;BME280;15344;52.342;-1.290;2022-08-01T08:34:51;100603.82;;;25.53;42.28
28027;BME280;15344;52.342;-1.290;2022-08-01T08:37:17;100604.32;;;25.63;40.65
28027;BME280;15344;52.342;-1.290;2022-08-01T08:39:43;100607.55;;;24.93;41.33
28027;BME280;15344;52.342;-1.290;2022-08-01T08:42:10;100602.28;;;26.26;39.01
28027;BME280;15344;52.342;-1.290;2022-08-01T08:44:34;100599.59;;;25.98;41.26
28027;BME280;15344;52.342;-1.290;2022-08-01T08:47:02;100599.04;;;28.22;37.30
28027;BME280;15344;52.342;-1.290;2022-08-01T08:49:28;100594.60;;;28.65;35.77
28027;BME280;15344;52.342;-1.290;2022-08-01T08:51:53;100599.10;;;25.85;34.82
28027;BME280;15344;52.342;-1.290;2022-08-01T08:54:19;100599.98;;;27.05;35.81
28027;BME280;15344;52.342;-1.290;2022-08-01T08:56:44;100595.31;;;27.91;33.63
28027;BME280;15344;52.342;-1.290;2022-08-01T08:59:12;100593.88;;;29.24;34.01
28027;BME280;15344;52.342;-1.290;2022-08-01T09:01:35;100594.60;;;27.53;33.06
28027;BME280;15344;52.342;-1.290;2022-08-01T09:04:01;100585.49;;;25.58;35.70
28027;BME280;15344;52.342;-1.290;2022-08-01T09:06:26;100584.10;;;25.61;34.83
28027;BME280;15344;52.342;-1.290;2022-08-01T09:08:52;100581.23;;;26.53;35.94
28027;BME280;15344;52.342;-1.290;2022-08-01T09:11:17;100581.95;;;28.88;34.47
28027;BME280;15344;52.342;-1.290;2022-08-01T09:16:16;100582.49;;;27.19;32.44
28027;BME280;15344;52.342;-1.290;2022-08-01T09:18:36;100586.77;;;30.38;32.15
28027;BME280;15344;52.342;-1.290;2022-08-01T09:21:09;100587.18;;;28.53;31.20
28027;BME280;15344;52.342;-1.290;2022-08-01T09:23:31;100583.07;;;30.82;33.52
28027;BME280;15344;52.342;-1.290;2022-08-01T09:25:52;100579.84;;;30.91;26.99
28027;BME280;15344;52.342;-1.290;2022-08-01T09:28:17;100573.23;;;30.13;30.73
28027;BME280;15344;52.342;-1.290;2022-08-01T09:30:43;100569.24;;;29.16;29.32
28027;BME280;15344;52.342;-1.290;2022-08-01T09:33:08;100569.77;;;30.87;28.10
28027;BME280;15344;52.342;-1.290;2022-08-01T09:35:35;100568.21;;;28.15;30.34
28027;BME280;15344;52.342;-1.290;2022-08-01T09:40:25;100571.53;;;27.97;31.86
28027;BME280;15344;52.342;-1.290;2022-08-01T09:42:57;100579.04;;;30.07;29.72
28027;BME280;15344;52.342;-1.290;2022-08-01T09:47:42;100583.45;;;31.86;28.20
28027;BME280;15344;52.342;-1.290;2022-08-01T09:50:08;100580.90;;;32.58;27.34
28027;BME280;15344;52.342;-1.290;2022-08-01T09:52:34;100580.09;;;28.99;29.04
28027;BME280;15344;52.342;-1.290;2022-08-01T09:55:02;100581.05;;;29.23;28.54
28027;BME280;15344;52.342;-1.290;2022-08-01T09:57:25;100585.48;;;31.28;27.82
28027;BME280;15344;52.342;-1.290;2022-08-01T09:59:53;100583.77;;;30.34;28.70
28027;BME280;15344;52.342;-1.290;2022-08-01T10:04:46;100579.76;;;32.62;27.05
28027;BME280;15344;52.342;-1.290;2022-08-01T10:07:07;100576.14;;;32.53;28.15
28027;BME280;15344;52.342;-1.290;2022-08-01T10:09:35;100572.79;;;31.94;26.40
28027;BME280;15344;52.342;-1.290;2022-08-01T10:11:59;100572.81;;;31.75;27.12
28027;BME280;15344;52.342;-1.290;2022-08-01T10:14:25;100571.02;;;32.82;27.08
28027;BME280;15344;52.342;-1.290;2022-08-01T10:16:49;100572.77;;;32.91;27.96
28027;BME280;15344;52.342;-1.290;2022-08-01T10:19:15;100573.37;;;31.69;25.71
28027;BME280;15344;52.342;-1.290;2022-08-01T10:21:41;100567.48;;;29.48;28.41
28027;BME280;15344;52.342;-1.290;2022-08-01T10:24:08;100568.13;;;28.68;29.26
28027;BME280;15344;52.342;-1.290;2022-08-01T10:26:33;100563.85;;;29.42;29.63
28027;BME280;15344;52.342;-1.290;2022-08-01T10:28:57;100557.24;;;29.95;31.11
28027;BME280;15344;52.342;-1.290;2022-08-01T10:31:23;100560.67;;;29.83;29.46
28027;BME280;15344;52.342;-1.290;2022-08-01T10:33:49;100566.28;;;31.39;27.55
28027;BME280;15344;52.342;-1.290;2022-08-01T10:36:17;100558.63;;;28.93;29.66
28027;BME280;15344;52.342;-1.290;2022-08-01T10:38:41;100559.84;;;29.18;29.79
28027;BME280;15344;52.342;-1.290;2022-08-01T10:41:06;100565.54;;;30.40;29.74
28027;BME280;15344;52.342;-1.290;2022-08-01T10:43:31;100566.14;;;29.91;29.29
28027;BME280;15344;52.342;-1.290;2022-08-01T10:45:58;100569.29;;;31.65;29.76
28027;BME280;15344;52.342;-1.290;2022-08-01T10:48:29;100569.64;;;31.79;27.40
28027;BME280;15344;52.342;-1.290;2022-08-01T10:50:51;100560.84;;;31.92;26.64
28027;BME280;15344;52.342;-1.290;2022-08-01T10:53:16;100562.21;;;32.58;26.76
28027;BME280;15344;52.342;-1.290;2022-08-01T10:55:46;100557.91;;;31.27;25.78
28027;BME280;15344;52.342;-1.290;2022-08-01T10:58:08;100554.38;;;32.86;26.44
28027;BME280;15344;52.342;-1.290;2022-08-01T11:00:31;100549.26;;;32.36;25.05
28027;BME280;15344;52.342;-1.290;2022-08-01T11:02:58;100551.49;;;32.19;25.58
28027;BME280;15344;52.342;-1.290;2022-08-01T11:05:23;100551.38;;;32.72;26.17
28027;BME280;15344;52.342;-1.290;2022-08-01T11:07:51;100554.76;;;33.40;25.90
28027;BME280;15344;52.342;-1.290;2022-08-01T11:10:21;100548.73;;;32.16;26.35
28027;BME280;15344;52.342;-1.290;2022-08-01T11:12:40;100548.25;;;32.78;25.44
28027;BME280;15344;52.342;-1.290;2022-08-01T11:17:32;100548.30;;;32.77;27.44
28027;BME280;15344;52.342;-1.290;2022-08-01T11:20:04;100542.94;;;32.18;27.90
28027;BME280;15344;52.342;-1.290;2022-08-01T11:22:21;100542.01;;;32.12;25.90
28027;BME280;15344;52.342;-1.290;2022-08-01T11:24:55;100534.72;;;32.00;26.81
28027;BME280;15344;52.342;-1.290;2022-08-01T11:27:17;100536.19;;;30.43;28.87
28027;BME280;15344;52.342;-1.290;2022-08-01T11:29:38;100528.50;;;29.08;28.61
28027;BME280;15344;52.342;-1.290;2022-08-01T11:39:22;100527.44;;;29.31;29.61
28027;BME280;15344;52.342;-1.290;2022-08-01T11:41:48;100521.96;;;29.58;28.74
28027;BME280;15344;52.342;-1.290;2022-08-01T11:44:15;100520.27;;;30.13;29.27
28027;BME280;15344;52.342;-1.290;2022-08-01T11:46:46;100520.68;;;28.25;30.50
28027;BME280;15344;52.342;-1.290;2022-08-01T11:51:29;100509.46;;;29.09;30.33
28027;BME280;15344;52.342;-1.290;2022-08-01T11:53:54;100507.20;;;30.07;29.68
28027;BME280;15344;52.342;-1.290;2022-08-01T11:56:20;100509.37;;;29.43;29.15
28027;BME280;15344;52.342;-1.290;2022-08-01T11:58:46;100507.44;;;28.25;32.67
28027;BME280;15344;52.342;-1.290;2022-08-01T12:01:12;100503.65;;;27.80;31.48
28027;BME280;15344;52.342;-1.290;2022-08-01T12:03:37;100503.94;;;29.12;29.66
28027;BME280;15344;52.342;-1.290;2022-08-01T12:06:03;100498.84;;;29.00;30.56
28027;BME280;15344;52.342;-1.290;2022-08-01T12:08:32;100495.61;;;27.63;31.16
28027;BME280;15344;52.342;-1.290;2022-08-01T12:10:55;100493.04;;;28.25;32.53
28027;BME280;15344;52.342;-1.290;2022-08-01T12:13:20;100492.53;;;29.16;31.06
28027;BME280;15344;52.342;-1.290;2022-08-01T12:15:46;100493.74;;;29.41;31.81
28027;BME280;15344;52.342;-1.290;2022-08-01T12:18:12;100490.28;;;29.93;31.57
28027;BME280;15344;52.342;-1.290;2022-08-01T12:20:39;100483.64;;;28.48;32.24
28027;BME280;15344;52.342;-1.290;2022-08-01T12:23:05;100478.32;;;28.98;30.91
28027;BME280;15344;52.342;-1.290;2022-08-01T12:25:30;100482.92;;;30.01;30.10
28027;BME280;15344;52.342;-1.290;2022-08-01T12:27:59;100478.39;;;29.49;29.72
28027;BME280;15344;52.342;-1.290;2022-08-01T12:30:21;100476.00;;;29.54;30.56
28027;BME280;15344;52.342;-1.290;2022-08-01T12:32:47;100470.81;;;28.43;30.89
28027;BME280;15344;52.342;-1.290;2022-08-01T12:35:14;100469.99;;;28.01;31.32
28027;BME280;15344;52.342;-1.290;2022-08-01T12:37:40;100475.14;;;27.46;30.98
28027;BME280;15344;52.342;-1.290;2022-08-01T12:40:09;100469.75;;;28.96;31.67
28027;BME280;15344;52.342;-1.290;2022-08-01T12:42:30;100467.19;;;28.36;31.15
28027;BME280;15344;52.342;-1.290;2022-08-01T12:44:55;100463.44;;;28.42;31.18
28027;BME280;15344;52.342;-1.290;2022-08-01T12:47:21;100457.06;;;28.29;30.51
28027;BME280;15344;52.342;-1.290;2022-08-01T12:49:47;100460.98;;;28.63;30.83
28027;BME280;15344;52.342;-1.290;2022-08-01T12:52:13;100458.19;;;28.35;30.63